Time;durP1;ratioP1;P1;durP2;ratioP2;P2;SDS_P1;SDS_P2;PMS_P1;PMS_P2;Temp;Humidity;BMP_temperature;BMP_pressure;BME280_temperature;BME280_humidity;BME280_pressure;Samples;Min_cycle;Max_cycle;Signal;HPM_P1;HPM_P2
2022/04/04 00:00:14;;;;;;;18.33;7.28;;;-3.10;99.90;;;;;;5007107;28;20033;-66
2022/04/04 00:02:40;;;;;;;17.13;6.65;;;-3.10;99.90;;;;;;5015401;28;20030;-65
2022/04/04 00:05:06;;;;;;;22.50;7.85;;;-3.10;99.90;;;;;;5004521;28;20066;-66
2022/04/04 00:07:32;;;;;;;20.65;8.25;;;-3.10;99.90;;;;;;5008668;28;20038;-66
2022/04/04 00:09:58;;;;;;;14.50;6.57;;;-3.10;99.90;;;;;;5008694;28;20103;-66
2022/04/04 00:12:24;;;;;;;18.40;7.53;;;-3.10;99.90;;;;;;5011206;28;20480;-64
2022/04/04 00:14:50;;;;;;;17.15;7.38;;;-3.30;99.90;;;;;;5009004;28;20120;-65
2022/04/04 00:17:16;;;;;;;20.48;7.75;;;-3.40;99.90;;;;;;5007557;28;20541;-66
2022/04/04 00:19:41;;;;;;;24.17;8.88;;;-3.40;99.90;;;;;;5009468;28;20100;-66
2022/04/04 00:22:07;;;;;;;19.60;7.97;;;-3.40;99.90;;;;;;4999259;28;20022;-66
2022/04/04 00:24:33;;;;;;;19.67;8.23;;;-3.40;99.90;;;;;;5013693;28;20152;-66
2022/04/04 00:26:59;;;;;;;21.13;7.93;;;-3.50;99.90;;;;;;5005891;28;20084;-66
2022/04/04 00:29:25;;;;;;;20.08;8.18;;;-3.50;99.90;;;;;;5007396;28;20034;-65
2022/04/04 00:31:51;;;;;;;19.88;7.55;;;-3.50;99.90;;;;;;5007484;28;20033;-66
2022/04/04 00:34:17;;;;;;;24.38;8.27;;;-3.50;99.90;;;;;;5008206;28;20137;-67
2022/04/04 00:36:43;;;;;;;24.70;8.93;;;-3.60;99.90;;;;;;5001687;28;20083;-65
2022/04/04 00:39:10;;;;;;;20.45;7.25;;;-3.50;99.90;;;;;;5006394;28;20026;-66
2022/04/04 00:41:37;;;;;;;21.65;7.90;;;-3.50;99.90;;;;;;5011817;28;20135;-65
2022/04/04 00:44:03;;;;;;;21.02;7.75;;;-3.60;99.90;;;;;;5006335;28;20046;-65
2022/04/04 00:46:29;;;;;;;23.90;9.15;;;-3.60;99.90;;;;;;5008484;28;20042;-66
2022/04/04 00:48:55;;;;;;;26.80;10.10;;;-3.60;99.90;;;;;;5007872;28;20034;-65
2022/04/04 00:51:21;;;;;;;23.27;8.57;;;-3.60;99.90;;;;;;5014420;28;20057;-65
2022/04/04 00:53:47;;;;;;;20.33;7.85;;;-3.70;99.90;;;;;;5005961;28;20042;-68
2022/04/04 00:56:13;;;;;;;19.63;7.15;;;-3.80;99.90;;;;;;5008775;28;21260;-65
2022/04/04 00:58:40;;;;;;;18.58;6.95;;;-3.90;99.90;;;;;;5012273;28;20029;-65
2022/04/04 01:01:06;;;;;;;15.73;6.28;;;-4.00;99.90;;;;;;5005248;28;20030;-66
2022/04/04 01:03:32;;;;;;;17.90;6.78;;;-4.00;99.90;;;;;;5009166;28;20480;-65
2022/04/04 01:05:59;;;;;;;22.55;7.25;;;-4.00;99.90;;;;;;5006044;28;20054;-65
2022/04/04 01:08:25;;;;;;;19.58;7.20;;;-3.90;99.90;;;;;;5011684;28;20041;-65
2022/04/04 01:10:51;;;;;;;18.50;6.45;;;-3.90;99.90;;;;;;5007451;28;20026;-70
2022/04/04 01:13:17;;;;;;;21.63;6.32;;;-3.90;99.90;;;;;;5006959;28;20029;-65
2022/04/04 01:15:43;;;;;;;16.33;5.88;;;-3.90;99.90;;;;;;5007441;28;20041;-65
2022/04/04 01:18:10;;;;;;;16.23;6.68;;;-3.80;99.90;;;;;;5006207;28;20029;-66
2022/04/04 01:20:36;;;;;;;19.20;6.80;;;-3.90;99.90;;;;;;5007930;28;20072;-66
2022/04/04 01:23:04;;;;;;;18.55;7.15;;;-3.90;99.90;;;;;;5010275;28;20038;-66
2022/04/04 01:25:32;;;;;;;16.67;5.72;;;-3.80;99.90;;;;;;5003672;28;20377;-63
2022/04/04 01:27:59;;;;;;;21.23;7.43;;;-3.80;99.90;;;;;;5012745;28;20054;-65
2022/04/04 01:30:26;;;;;;;19.00;7.70;;;-3.90;99.90;;;;;;5007076;28;20105;-64
2022/04/04 01:32:52;;;;;;;19.13;7.15;;;-3.80;99.90;;;;;;5006721;28;20025;-69
2022/04/04 01:35:19;;;;;;;17.70;7.22;;;-4.00;99.90;;;;;;5007315;28;20117;-65
2022/04/04 01:37:46;;;;;;;20.50;7.40;;;-4.00;99.90;;;;;;5008405;28;20033;-65
2022/04/04 01:40:12;;;;;;;18.40;6.68;;;-4.00;99.90;;;;;;5005486;28;20101;-65
2022/04/04 01:42:39;;;;;;;16.02;6.30;;;-4.00;99.90;;;;;;5009535;28;20376;-67
2022/04/04 01:45:07;;;;;;;17.55;6.80;;;-4.00;99.90;;;;;;5012540;28;20168;-65
2022/04/04 01:47:33;;;;;;;15.55;6.72;;;-4.00;99.90;;;;;;5015908;28;20034;-66
2022/04/04 01:49:59;;;;;;;18.42;7.00;;;-4.00;99.90;;;;;;5011743;28;20026;-65
2022/04/04 01:52:25;;;;;;;17.30;7.05;;;-3.90;99.90;;;;;;5011435;28;20030;-65
2022/04/04 01:54:51;;;;;;;16.27;6.30;;;-4.00;99.90;;;;;;5016868;28;20040;-68
2022/04/04 01:57:17;;;;;;;14.52;5.65;;;-4.10;99.90;;;;;;5005277;28;20034;-65
2022/04/04 01:59:43;;;;;;;16.98;6.57;;;-4.20;99.90;;;;;;5008702;28;20088;-66
2022/04/04 02:02:09;;;;;;;16.80;6.25;;;-4.30;99.90;;;;;;5005273;28;20030;-69
2022/04/04 02:04:35;;;;;;;16.85;6.82;;;-4.30;99.90;;;;;;5011613;28;20042;-65
2022/04/04 02:07:02;;;;;;;21.15;6.80;;;-4.30;99.90;;;;;;5010812;28;20076;-64
2022/04/04 02:09:27;;;;;;;17.90;6.63;;;-4.30;99.90;;;;;;5017065;28;20049;-65
2022/04/04 02:11:53;;;;;;;16.55;6.25;;;-4.20;99.90;;;;;;5009804;28;20038;-68
2022/04/04 02:14:19;;;;;;;17.70;6.38;;;-4.20;99.90;;;;;;5015282;28;20045;-65
2022/04/04 02:16:45;;;;;;;17.92;7.07;;;-4.20;99.90;;;;;;5005100;28;20026;-66
2022/04/04 02:19:11;;;;;;;17.58;7.10;;;-4.30;99.90;;;;;;5015219;28;20080;-65
2022/04/04 02:21:37;;;;;;;19.75;7.95;;;-4.40;99.90;;;;;;5010772;28;20026;-65
2022/04/04 02:24:04;;;;;;;17.25;7.13;;;-4.50;99.90;;;;;;5010745;28;20033;-65
2022/04/04 02:26:30;;;;;;;19.83;7.10;;;-4.40;99.90;;;;;;4990036;28;20045;-65
2022/04/04 02:28:56;;;;;;;17.90;7.07;;;-4.40;99.90;;;;;;5006470;28;20030;-69
2022/04/04 02:31:21;;;;;;;17.20;7.57;;;-4.30;99.90;;;;;;5005720;28;20069;-65
2022/04/04 02:33:47;;;;;;;16.45;7.15;;;-4.30;99.90;;;;;;5011597;28;20092;-66
2022/04/04 02:36:13;;;;;;;19.30;8.07;;;-4.20;99.90;;;;;;5009396;28;20025;-65
2022/04/04 02:38:39;;;;;;;22.08;7.90;;;-4.40;99.90;;;;;;5011448;28;20085;-65
2022/04/04 02:41:05;;;;;;;16.40;6.45;;;-4.40;99.90;;;;;;5007872;28;20026;-64
2022/04/04 02:43:32;;;;;;;19.52;7.20;;;-4.40;99.90;;;;;;5012980;28;20032;-64
2022/04/04 02:45:58;;;;;;;18.65;7.63;;;-4.50;99.90;;;;;;5008480;28;20030;-69
2022/04/04 02:48:23;;;;;;;15.95;6.35;;;-4.50;99.90;;;;;;5009889;28;20045;-65
2022/04/04 02:50:50;;;;;;;17.70;7.10;;;-4.50;99.90;;;;;;5003145;28;20453;-65
2022/04/04 02:53:15;;;;;;;18.00;6.70;;;-4.50;99.90;;;;;;5010353;28;20030;-65
2022/04/04 02:58:27;;;;;;;15.27;6.28;;;-4.50;99.90;;;;;;5009833;28;20447;-66
2022/04/04 03:00:53;;;;;;;16.23;6.43;;;-4.60;99.90;;;;;;5007828;28;20486;-64
2022/04/04 03:03:19;;;;;;;17.98;6.82;;;-4.70;99.90;;;;;;5009337;28;20037;-66
2022/04/04 03:05:45;;;;;;;18.15;6.93;;;-4.70;99.90;;;;;;5010345;28;20070;-65
2022/04/04 03:08:10;;;;;;;16.98;6.50;;;-4.70;99.90;;;;;;5007515;28;20068;-66
2022/04/04 03:10:36;;;;;;;20.27;7.40;;;-4.70;99.90;;;;;;5009770;28;20161;-65
2022/04/04 03:13:05;;;;;;;16.85;6.80;;;-4.70;99.90;;;;;;5007993;28;20057;-66
2022/04/04 03:15:36;;;;;;;18.25;7.03;;;-4.60;99.90;;;;;;5008359;28;20026;-64
2022/04/04 03:18:03;;;;;;;19.42;7.07;;;-4.70;99.90;;;;;;5005654;28;20421;-65
2022/04/04 03:20:31;;;;;;;14.80;6.93;;;-4.70;99.90;;;;;;5009204;28;20048;-66
2022/04/04 03:22:57;;;;;;;20.02;7.15;;;-4.70;99.90;;;;;;5016725;28;20030;-68
2022/04/04 03:25:23;;;;;;;19.20;7.63;;;-4.70;99.90;;;;;;5008220;28;20053;-65
2022/04/04 03:27:50;;;;;;;20.52;7.00;;;-4.70;99.90;;;;;;5007783;28;20029;-65
2022/04/04 03:30:19;;;;;;;19.42;7.63;;;-4.80;99.90;;;;;;5009778;28;20034;-65
2022/04/04 03:32:51;;;;;;;17.25;6.75;;;-4.90;99.90;;;;;;5007524;28;20037;-64
2022/04/04 03:35:18;;;;;;;18.40;7.10;;;-4.90;99.90;;;;;;5008891;28;20042;-62
2022/04/04 03:37:47;;;;;;;15.80;6.22;;;-4.90;99.90;;;;;;5004770;28;20480;-68
2022/04/04 03:40:14;;;;;;;21.83;7.65;;;-4.90;99.90;;;;;;5009482;28;20025;-65
2022/04/04 03:42:42;;;;;;;19.35;6.47;;;-4.90;99.90;;;;;;5008259;28;20052;-65
2022/04/04 03:45:11;;;;;;;20.90;7.28;;;-4.90;99.90;;;;;;5007045;28;20033;-66
2022/04/04 03:47:37;;;;;;;19.17;7.65;;;-4.90;99.90;;;;;;5008764;28;20038;-65
2022/04/04 03:50:05;;;;;;;19.80;6.72;;;-5.00;99.90;;;;;;5005213;28;20036;-65
2022/04/04 03:52:30;;;;;;;17.73;7.18;;;-5.00;99.90;;;;;;5008072;28;20040;-64
2022/04/04 03:54:56;;;;;;;19.77;6.75;;;-5.10;99.90;;;;;;5015220;28;20034;-65
2022/04/04 03:57:22;;;;;;;19.90;7.03;;;-5.00;99.90;;;;;;5004503;28;20033;-66
2022/04/04 03:59:48;;;;;;;19.08;6.57;;;-4.90;99.90;;;;;;5009474;28;20117;-65
2022/04/04 04:02:14;;;;;;;20.10;6.88;;;-5.00;99.90;;;;;;5003491;28;20109;-66
2022/04/04 04:04:39;;;;;;;16.58;6.53;;;-5.00;99.90;;;;;;5012115;28;20037;-66
2022/04/04 04:07:07;;;;;;;18.30;6.63;;;-5.00;99.90;;;;;;5012873;28;20087;-64
2022/04/04 04:09:33;;;;;;;18.02;6.78;;;-5.00;99.90;;;;;;5011639;28;20033;-66
2022/04/04 04:11:58;;;;;;;19.25;6.32;;;-4.90;99.90;;;;;;5006421;28;20034;-68
2022/04/04 04:14:25;;;;;;;18.80;6.88;;;-4.90;99.90;;;;;;5009668;28;20038;-66
2022/04/04 04:16:51;;;;;;;18.38;6.63;;;-5.00;99.90;;;;;;5003342;28;21706;-65
2022/04/04 04:22:00;;;;;;;15.65;6.20;;;-5.00;99.90;;;;;;5008228;28;20534;-68
2022/04/04 04:24:26;;;;;;;18.40;6.63;;;-5.10;99.90;;;;;;5013216;28;20038;-66
2022/04/04 04:26:53;;;;;;;18.58;6.88;;;-5.00;99.90;;;;;;5009644;28;20377;-66
2022/04/04 04:29:18;;;;;;;17.33;6.65;;;-5.00;99.90;;;;;;5002833;28;20092;-66
2022/04/04 04:31:44;;;;;;;20.17;6.70;;;-5.00;99.90;;;;;;5007946;28;20033;-64
2022/04/04 04:34:10;;;;;;;19.15;7.10;;;-5.00;99.90;;;;;;5006190;28;20050;-66
2022/04/04 04:36:39;;;;;;;16.88;5.97;;;-5.00;99.90;;;;;;5007503;28;20034;-65
2022/04/04 04:39:08;;;;;;;16.05;6.50;;;-5.00;99.90;;;;;;5012175;28;20480;-67
2022/04/04 04:41:34;;;;;;;19.35;6.93;;;-5.10;99.90;;;;;;5008724;28;20034;-65
2022/04/04 04:44:03;;;;;;;18.88;7.03;;;-5.10;99.90;;;;;;5009248;28;20040;-66
2022/04/04 04:46:30;;;;;;;19.00;7.40;;;-5.10;99.90;;;;;;5007433;28;20055;-67
2022/04/04 04:48:56;;;;;;;18.00;7.03;;;-5.00;99.90;;;;;;5007694;28;20038;-66
2022/04/04 04:51:21;;;;;;;18.35;7.03;;;-5.00;99.90;;;;;;5004938;28;20088;-66
2022/04/04 04:53:47;;;;;;;17.75;6.53;;;-5.00;99.90;;;;;;5005927;28;20496;-69
2022/04/04 04:56:13;;;;;;;22.30;7.03;;;-5.00;99.90;;;;;;5012086;28;20029;-66
2022/04/04 04:58:38;;;;;;;18.98;6.78;;;-5.00;99.90;;;;;;5007125;28;20030;-67
2022/04/04 05:01:04;;;;;;;16.25;7.03;;;-5.00;99.90;;;;;;5007542;28;20029;-71
2022/04/04 05:03:30;;;;;;;20.88;7.63;;;-5.00;99.90;;;;;;5009830;28;20080;-65
2022/04/04 05:05:56;;;;;;;25.10;7.97;;;-5.00;99.90;;;;;;5006933;28;20104;-66
2022/04/04 05:08:22;;;;;;;19.27;6.93;;;-5.00;99.90;;;;;;5009736;28;20944;-69
2022/04/04 05:10:48;;;;;;;23.02;8.55;;;-5.00;99.90;;;;;;5008667;28;20116;-67
2022/04/04 05:13:13;;;;;;;20.50;7.32;;;-4.90;99.90;;;;;;5004780;28;20188;-68
2022/04/04 05:15:40;;;;;;;22.10;7.75;;;-4.80;99.90;;;;;;5014499;28;20132;-67
2022/04/04 05:18:06;;;;;;;23.42;7.20;;;-4.70;99.90;;;;;;5004199;28;20452;-70
2022/04/04 05:20:32;;;;;;;19.90;7.22;;;-4.70;99.90;;;;;;5009218;28;20064;-69
2022/04/04 05:22:57;;;;;;;20.00;7.28;;;-4.70;99.90;;;;;;5005651;28;20113;-67
2022/04/04 05:25:23;;;;;;;19.35;7.07;;;-4.60;99.90;;;;;;5007528;28;20121;-67
2022/04/04 05:27:50;;;;;;;19.63;7.25;;;-4.70;99.90;;;;;;5008768;28;20063;-67
2022/04/04 05:30:17;;;;;;;21.13;7.57;;;-4.70;99.90;;;;;;5005863;28;20436;-67
2022/04/04 05:32:43;;;;;;;20.83;7.80;;;-4.60;99.90;;;;;;5007611;28;20092;-67
2022/04/04 05:35:12;;;;;;;21.77;7.95;;;-4.60;99.90;;;;;;5008917;28;20045;-66
2022/04/04 05:37:38;;;;;;;19.08;7.88;;;-4.60;99.90;;;;;;5011957;28;20017;-67
2022/04/04 05:40:04;;;;;;;17.73;6.72;;;-4.50;99.90;;;;;;5010402;28;20040;-69
2022/04/04 05:42:31;;;;;;;21.38;7.50;;;-4.60;99.90;;;;;;5001398;28;20034;-67
2022/04/04 05:44:57;;;;;;;23.98;7.35;;;-4.60;99.90;;;;;;5007333;28;20145;-68
2022/04/04 05:47:23;;;;;;;20.08;7.35;;;-4.60;99.90;;;;;;5006726;28;20469;-67
2022/04/04 05:49:49;;;;;;;22.10;8.02;;;-4.60;99.90;;;;;;5007866;28;20026;-66
2022/04/04 05:52:15;;;;;;;23.02;7.97;;;-4.60;99.90;;;;;;5004178;28;20037;-66
2022/04/04 05:54:53;;;;;;;21.73;9.07;;;-4.50;99.90;;;;;;5006377;28;20109;-66
2022/04/04 05:57:27;;;;;;;25.00;8.15;;;-4.40;99.90;;;;;;5005067;28;20025;-67
2022/04/04 05:59:54;;;;;;;18.42;7.82;;;-4.30;99.90;;;;;;5008659;28;20388;-68
2022/04/04 06:02:20;;;;;;;24.83;9.18;;;-4.20;99.90;;;;;;5005016;28;20037;-66
2022/04/04 06:04:46;;;;;;;22.65;8.63;;;-4.20;99.90;;;;;;5015551;28;20048;-65
2022/04/04 06:07:12;;;;;;;27.42;8.55;;;-4.00;99.90;;;;;;5004272;28;20026;-67
2022/04/04 06:09:37;;;;;;;21.23;7.97;;;-3.90;99.90;;;;;;5009908;28;20524;-66
2022/04/04 06:12:04;;;;;;;20.08;8.00;;;-3.80;99.90;;;;;;5007690;28;20069;-67
2022/04/04 06:14:30;;;;;;;28.08;10.98;;;-3.70;99.90;;;;;;5003449;28;20594;-68
2022/04/04 06:16:55;;;;;;;25.55;9.85;;;-3.40;99.90;;;;;;5006561;28;20021;-67
2022/04/04 06:19:21;;;;;;;26.02;10.27;;;-3.20;99.90;;;;;;5004804;28;20480;-65
2022/04/04 06:21:47;;;;;;;25.63;9.70;;;-2.90;99.90;;;;;;5010604;28;20032;-66
2022/04/04 06:24:13;;;;;;;23.60;9.25;;;-2.80;99.90;;;;;;5007127;28;20488;-66
2022/04/04 06:26:39;;;;;;;27.13;9.05;;;-2.70;99.90;;;;;;5014229;28;20033;-67
2022/04/04 06:29:09;;;;;;;26.95;10.40;;;-2.50;99.90;;;;;;5009587;28;20029;-67
2022/04/04 06:31:36;;;;;;;24.07;9.50;;;-2.50;99.90;;;;;;5007270;28;21212;-65
2022/04/04 06:34:04;;;;;;;23.42;9.63;;;-2.40;99.90;;;;;;5009461;28;20313;-64
2022/04/04 06:36:30;;;;;;;29.33;11.63;;;-2.20;99.90;;;;;;5007026;28;20026;-65
2022/04/04 06:38:56;;;;;;;28.55;10.95;;;-2.10;99.90;;;;;;5015381;28;20030;-65
2022/04/04 06:41:22;;;;;;;29.60;10.70;;;-1.90;99.90;;;;;;5010302;28;20159;-65
2022/04/04 06:43:48;;;;;;;33.63;11.48;;;-1.80;99.90;;;;;;5009088;28;20472;-65
2022/04/04 06:46:14;;;;;;;31.58;12.30;;;-1.70;99.90;;;;;;5008820;28;20045;-65
2022/04/04 06:48:40;;;;;;;23.83;10.52;;;-1.50;99.90;;;;;;5010558;28;20069;-65
2022/04/04 06:51:05;;;;;;;30.17;11.05;;;-1.40;99.90;;;;;;5012916;28;20381;-65
2022/04/04 06:53:31;;;;;;;31.58;12.30;;;-1.40;99.90;;;;;;5006877;28;20627;-64
2022/04/04 06:55:57;;;;;;;34.30;13.52;;;-1.30;99.90;;;;;;5006693;28;20030;-69
2022/04/04 06:58:26;;;;;;;33.20;12.38;;;-1.10;99.90;;;;;;5008815;28;20030;-67
2022/04/04 07:00:51;;;;;;;31.33;11.35;;;-1.00;99.90;;;;;;5004898;28;20030;-65
2022/04/04 07:03:17;;;;;;;32.08;12.07;;;-0.80;99.90;;;;;;5004674;28;20477;-67
2022/04/04 07:05:43;;;;;;;29.63;11.00;;;-0.80;99.90;;;;;;5011282;28;20833;-68
2022/04/04 07:08:10;;;;;;;29.88;11.10;;;-0.70;99.90;;;;;;5008257;28;20034;-64
2022/04/04 07:10:36;;;;;;;25.55;10.38;;;-0.60;99.90;;;;;;5009298;28;20065;-65
2022/04/04 07:13:04;;;;;;;28.05;10.70;;;-0.50;99.90;;;;;;5004841;28;20056;-65
2022/04/04 07:15:30;;;;;;;26.15;10.05;;;-0.50;99.90;;;;;;5003920;28;20029;-67
2022/04/04 07:17:55;;;;;;;30.20;11.23;;;-0.50;99.90;;;;;;5001635;28;20033;-64
2022/04/04 07:20:21;;;;;;;24.25;10.75;;;-0.40;99.90;;;;;;5006714;28;20034;-66
2022/04/04 07:22:47;;;;;;;27.67;10.93;;;-0.30;99.90;;;;;;5004890;28;20037;-65
2022/04/04 07:25:14;;;;;;;26.50;10.80;;;-0.20;99.90;;;;;;5008177;28;20075;-68
2022/04/04 07:27:41;;;;;;;30.95;10.48;;;-0.10;99.90;;;;;;5010562;28;20058;-65
2022/04/04 07:30:08;;;;;;;27.02;10.82;;;-0.20;99.90;;;;;;5004041;28;20037;-64
2022/04/04 07:32:41;;;;;;;23.85;9.75;;;0.00;99.90;;;;;;5004482;28;20080;-66
2022/04/04 07:35:09;;;;;;;29.67;10.32;;;0.10;99.90;;;;;;5011424;28;20065;-65
2022/04/04 07:37:35;;;;;;;25.10;10.05;;;0.30;99.90;;;;;;5009059;28;20798;-67
2022/04/04 07:40:01;;;;;;;20.77;8.52;;;0.40;99.90;;;;;;5010300;28;20033;-64
2022/04/04 07:42:27;;;;;;;21.85;8.95;;;0.40;99.90;;;;;;4997644;28;20030;-65
2022/04/04 07:44:53;;;;;;;22.00;8.23;;;0.30;99.90;;;;;;5005173;28;20025;-65
2022/04/04 07:47:18;;;;;;;27.80;9.45;;;0.30;99.90;;;;;;5007959;28;20028;-67
2022/04/04 07:49:44;;;;;;;23.83;9.25;;;0.40;99.90;;;;;;5002154;28;20455;-67
2022/04/04 07:52:10;;;;;;;20.98;8.38;;;0.50;99.90;;;;;;5001059;28;20087;-66
2022/04/04 07:54:36;;;;;;;22.15;8.45;;;0.60;99.90;;;;;;5003210;28;20650;-65
2022/04/04 07:57:02;;;;;;;25.23;9.48;;;0.60;99.90;;;;;;5006276;28;20076;-66
2022/04/04 07:59:27;;;;;;;21.77;9.80;;;0.70;99.90;;;;;;5001699;28;20029;-66
2022/04/04 08:01:53;;;;;;;21.77;10.25;;;0.80;99.90;;;;;;5003798;28;21210;-66
2022/04/04 08:04:19;;;;;;;24.85;9.00;;;1.00;99.90;;;;;;5006244;28;20132;-65
2022/04/04 08:06:45;;;;;;;22.40;8.70;;;1.20;99.90;;;;;;5003241;28;20116;-66
2022/04/04 08:09:11;;;;;;;20.67;8.50;;;1.20;99.90;;;;;;5006509;28;20442;-66
2022/04/04 08:11:37;;;;;;;19.27;8.60;;;1.30;99.90;;;;;;5008106;28;20058;-65
2022/04/04 08:14:04;;;;;;;21.33;8.93;;;1.50;99.90;;;;;;5003985;28;20041;-66
2022/04/04 08:16:29;;;;;;;19.15;8.52;;;1.40;99.90;;;;;;5004860;28;20033;-66
2022/04/04 08:18:56;;;;;;;20.27;8.57;;;1.40;99.90;;;;;;5009677;28;20022;-65
2022/04/04 08:21:23;;;;;;;24.52;8.57;;;1.30;99.90;;;;;;5005809;28;20031;-65
2022/04/04 08:23:48;;;;;;;23.25;8.07;;;1.30;99.90;;;;;;5005516;28;20061;-64
2022/04/04 08:26:15;;;;;;;20.83;8.57;;;1.50;99.90;;;;;;5007334;28;20025;-67
2022/04/04 08:28:41;;;;;;;17.13;7.45;;;1.80;99.90;;;;;;5006331;28;20120;-65
2022/04/04 08:31:07;;;;;;;20.77;7.80;;;1.80;99.90;;;;;;5009458;28;20386;-64
2022/04/04 08:33:32;;;;;;;19.83;7.63;;;1.90;99.90;;;;;;5009914;28;20038;-65
2022/04/04 08:36:00;;;;;;;21.70;8.48;;;1.90;99.90;;;;;;4999800;28;20033;-64
2022/04/04 08:38:26;;;;;;;18.75;7.47;;;2.10;99.90;;;;;;5007546;28;20057;-67
2022/04/04 08:40:53;;;;;;;20.48;8.15;;;2.30;99.90;;;;;;5006551;28;20531;-64
2022/04/04 08:43:19;;;;;;;18.65;7.35;;;2.40;99.90;;;;;;5010727;28;20084;-65
2022/04/04 08:45:49;;;;;;;19.08;7.35;;;2.50;99.90;;;;;;5006452;28;20033;-65
2022/04/04 08:48:15;;;;;;;20.13;8.18;;;2.30;99.90;;;;;;5005477;28;20037;-69
2022/04/04 08:50:42;;;;;;;16.63;7.50;;;2.50;99.90;;;;;;5006634;28;20057;-64
2022/04/04 08:53:08;;;;;;;16.40;7.30;;;2.60;99.90;;;;;;5005760;28;20028;-64
2022/04/04 08:55:35;;;;;;;20.63;8.23;;;2.50;99.90;;;;;;5004039;28;20045;-65
2022/04/04 08:58:02;;;;;;;16.33;7.07;;;2.70;99.90;;;;;;5003505;28;20038;-66
2022/04/04 09:00:28;;;;;;;17.38;6.72;;;2.60;99.90;;;;;;5009146;28;20033;-64
2022/04/04 09:03:05;;;;;;;15.63;6.85;;;2.60;99.90;;;;;;5008270;28;20034;-65
2022/04/04 09:05:34;;;;;;;20.60;7.85;;;2.80;99.90;;;;;;5011171;28;20180;-65
2022/04/04 09:08:00;;;;;;;20.58;7.80;;;2.90;99.90;;;;;;5011027;28;20041;-63
2022/04/04 09:10:34;;;;;;;17.45;7.60;;;2.80;99.90;;;;;;5007967;28;20030;-64
2022/04/04 09:13:13;;;;;;;21.90;9.18;;;2.70;99.90;;;;;;5006745;28;20353;-65
2022/04/04 09:15:51;;;;;;;21.08;8.23;;;3.00;99.90;;;;;;5007846;28;20160;-63
2022/04/04 09:18:17;;;;;;;19.33;8.55;;;3.20;99.90;;;;;;5004885;28;20025;-65
2022/04/04 09:20:53;;;;;;;19.45;9.15;;;3.20;99.90;;;;;;5008128;28;20025;-64
2022/04/04 09:23:19;;;;;;;19.77;9.20;;;3.20;99.90;;;;;;5005551;28;20162;-65
2022/04/04 09:25:45;;;;;;;16.83;7.60;;;3.40;99.90;;;;;;5007519;28;20108;-64
2022/04/04 09:28:20;;;;;;;21.63;9.10;;;3.20;99.90;;;;;;5007624;28;20030;-65
2022/04/04 09:31:07;;;;;;;21.23;9.52;;;3.40;99.90;;;;;;5008276;28;20022;-65
2022/04/04 09:33:40;;;;;;;21.17;8.90;;;3.30;99.90;;;;;;5006526;28;20108;-68
2022/04/04 09:36:09;;;;;;;19.48;8.38;;;3.60;99.90;;;;;;5007269;28;20034;-65
2022/04/04 09:38:35;;;;;;;18.02;8.30;;;3.60;99.90;;;;;;5005576;28;20061;-65
2022/04/04 09:41:05;;;;;;;17.95;7.82;;;3.70;99.90;;;;;;5008709;28;20464;-64
2022/04/04 09:44:01;;;;;;;20.98;8.00;;;3.40;99.90;;;;;;5006211;28;20081;-63
2022/04/04 09:46:35;;;;;;;20.30;8.32;;;3.00;99.90;;;;;;5003726;28;20072;-65
2022/04/04 09:49:04;;;;;;;14.70;7.20;;;2.90;99.90;;;;;;5007448;28;20022;-66
2022/04/04 09:51:38;;;;;;;16.85;6.88;;;3.40;99.90;;;;;;5007696;28;20042;-65
2022/04/04 09:54:07;;;;;;;15.05;6.63;;;3.50;99.90;;;;;;5005517;28;20041;-64
2022/04/04 09:56:33;;;;;;;13.85;6.63;;;3.50;99.90;;;;;;5006707;28;20038;-65
2022/04/04 09:59:00;;;;;;;16.42;7.63;;;4.00;99.90;;;;;;5009977;28;20042;-64
2022/04/04 10:01:27;;;;;;;13.77;5.93;;;4.10;99.90;;;;;;5009297;28;20083;-65
2022/04/04 10:03:55;;;;;;;14.85;6.43;;;3.70;99.90;;;;;;5010861;28;20034;-66
2022/04/04 10:06:27;;;;;;;15.13;6.25;;;3.80;99.90;;;;;;5015691;28;20064;-67
2022/04/04 10:08:59;;;;;;;15.35;6.80;;;4.10;99.90;;;;;;5018818;28;20052;-66
2022/04/04 10:11:26;;;;;;;15.15;6.78;;;4.30;99.90;;;;;;5005351;28;20073;-66
2022/04/04 10:13:52;;;;;;;15.57;6.57;;;4.50;99.90;;;;;;5006676;28;20033;-67
2022/04/04 10:16:19;;;;;;;15.05;6.65;;;4.40;99.90;;;;;;5011466;28;20033;-66
2022/04/04 10:18:46;;;;;;;14.23;6.80;;;4.50;99.90;;;;;;5011244;28;20041;-66
2022/04/04 10:21:12;;;;;;;13.75;6.63;;;4.00;99.90;;;;;;5006877;28;20358;-69
2022/04/04 10:23:40;;;;;;;13.80;6.32;;;4.00;99.90;;;;;;5009647;28;20037;-69
2022/04/04 10:26:07;;;;;;;12.65;6.05;;;4.00;99.90;;;;;;5010298;28;20030;-69
2022/04/04 10:28:39;;;;;;;14.90;6.55;;;3.70;99.90;;;;;;5010042;28;20034;-68
2022/04/04 10:31:18;;;;;;;12.38;6.07;;;4.00;99.90;;;;;;5011056;28;20037;-68
2022/04/04 10:33:49;;;;;;;13.43;6.65;;;4.20;99.90;;;;;;5009766;28;20128;-69
2022/04/04 10:36:25;;;;;;;14.35;6.60;;;4.40;99.90;;;;;;5009817;28;20034;-65
2022/04/04 10:38:54;;;;;;;10.50;5.43;;;4.60;99.90;;;;;;5013449;28;20033;-67
2022/04/04 10:41:22;;;;;;;12.32;5.38;;;4.60;99.90;;;;;;5010072;28;20042;-67
2022/04/04 10:43:52;;;;;;;12.68;5.47;;;4.70;99.90;;;;;;5014092;28;20544;-67
2022/04/04 10:46:20;;;;;;;12.52;5.55;;;4.60;99.00;;;;;;5003155;28;20022;-67
2022/04/04 10:48:50;;;;;;;15.40;6.15;;;4.50;96.50;;;;;;5009753;28;20037;-66
2022/04/04 10:51:35;;;;;;;14.63;5.80;;;4.80;98.00;;;;;;5010769;28;20049;-67
2022/04/04 10:54:06;;;;;;;12.32;5.38;;;4.60;99.20;;;;;;5011069;28;20461;-64
2022/04/04 10:56:44;;;;;;;14.63;6.35;;;4.60;99.90;;;;;;5008483;28;20396;-65
2022/04/04 10:59:16;;;;;;;14.43;6.30;;;4.90;99.90;;;;;;5011130;28;20088;-65
2022/04/04 11:01:45;;;;;;;12.80;5.35;;;4.60;97.40;;;;;;5009837;28;20128;-65
2022/04/04 11:04:26;;;;;;;12.40;5.85;;;4.50;95.00;;;;;;5029495;28;20034;-67
2022/04/04 11:09:56;;;;;;;13.70;6.72;;;4.90;98.40;;;;;;5006570;28;20005;-65
2022/04/04 11:12:25;;;;;;;14.13;6.28;;;4.90;98.70;;;;;;5030823;28;20447;-66
2022/04/04 11:15:05;;;;;;;12.68;6.13;;;4.80;93.60;;;;;;5008572;28;20034;-66
2022/04/04 11:17:33;;;;;;;15.30;5.97;;;5.10;98.40;;;;;;5009822;28;20025;-64
2022/04/04 11:20:11;;;;;;;10.45;5.28;;;5.40;99.90;;;;;;5010708;28;20026;-65
2022/04/04 11:22:46;;;;;;;11.07;5.13;;;5.40;97.00;;;;;;5010453;28;20393;-64
2022/04/04 11:25:20;;;;;;;14.68;6.10;;;5.10;93.60;;;;;;5005545;28;20748;-64
2022/04/04 11:27:50;;;;;;;17.38;6.90;;;5.00;94.70;;;;;;5008994;28;20030;-63
2022/04/04 11:30:24;;;;;;;12.25;5.93;;;5.10;97.50;;;;;;5009923;28;20022;-63
2022/04/04 11:32:53;;;;;;;14.77;6.78;;;4.90;93.10;;;;;;5005651;28;20034;-64
2022/04/04 11:35:27;;;;;;;13.43;6.38;;;5.20;97.10;;;;;;5004696;28;20080;-65
2022/04/04 11:37:56;;;;;;;16.80;6.75;;;5.50;97.90;;;;;;5010648;28;20030;-65
2022/04/04 11:40:29;;;;;;;13.95;6.65;;;5.80;98.80;;;;;;5010034;28;20049;-65
2022/04/04 11:42:57;;;;;;;13.15;6.80;;;5.70;93.10;;;;;;5007753;28;20041;-66
2022/04/04 11:45:27;;;;;;;15.00;6.45;;;5.70;97.60;;;;;;5005021;28;20041;-65
2022/04/04 11:48:01;;;;;;;10.68;4.78;;;5.50;95.60;;;;;;5008498;28;20038;-64
2022/04/04 11:50:30;;;;;;;15.90;6.65;;;5.50;94.40;;;;;;5009525;28;20783;-64
2022/04/04 11:53:00;;;;;;;16.70;6.55;;;5.70;94.60;;;;;;5008831;28;20026;-64
2022/04/04 11:55:27;;;;;;;15.07;6.50;;;5.30;93.40;;;;;;5009540;28;20038;-65
2022/04/04 11:57:59;;;;;;;12.32;6.00;;;5.30;96.20;;;;;;5008703;28;20053;-64
2022/04/04 12:00:32;;;;;;;13.63;6.72;;;5.30;92.90;;;;;;5004066;28;20036;-65
2022/04/04 12:03:10;;;;;;;13.10;6.28;;;5.80;94.40;;;;;;5007463;28;20022;-64
2022/04/04 12:05:44;;;;;;;14.35;6.60;;;5.90;95.40;;;;;;5012180;28;20130;-65
2022/04/04 12:08:11;;;;;;;15.02;7.38;;;5.70;94.10;;;;;;5013509;28;20029;-66
2022/04/04 12:10:39;;;;;;;16.30;7.28;;;5.60;93.30;;;;;;5008889;28;20058;-63
2022/04/04 12:13:08;;;;;;;17.05;7.28;;;5.70;93.90;;;;;;5008373;28;20061;-66
2022/04/04 12:15:45;;;;;;;15.10;7.50;;;5.90;96.60;;;;;;5008809;28;20129;-65
2022/04/04 12:18:25;;;;;;;13.85;6.82;;;6.20;99.90;;;;;;5005960;28;20018;-72
2022/04/04 12:20:53;;;;;;;15.35;6.30;;;6.10;92.90;;;;;;5007665;28;20820;-65
2022/04/04 12:26:10;;;;;;;14.95;6.88;;;6.30;94.50;;;;;;5008652;28;20529;-66
2022/04/04 12:28:39;;;;;;;15.13;7.75;;;5.70;92.50;;;;;;5001423;28;20022;-67
2022/04/04 12:31:19;;;;;;;15.73;7.40;;;6.10;97.80;;;;;;5007000;28;20065;-66
2022/04/04 12:34:06;;;;;;;11.85;5.68;;;6.20;92.80;;;;;;5007579;28;20558;-66
2022/04/04 12:36:38;;;;;;;17.67;7.70;;;6.00;93.90;;;;;;5005027;28;20046;-63
2022/04/04 12:39:13;;;;;;;18.63;8.02;;;6.40;94.70;;;;;;5007804;28;20038;-65
2022/04/04 12:41:47;;;;;;;14.95;7.53;;;6.00;97.30;;;;;;5008388;28;20063;-64
2022/04/04 12:44:19;;;;;;;15.60;7.43;;;5.70;94.10;;;;;;5008399;28;20121;-65
2022/04/04 12:46:45;;;;;;;14.40;7.90;;;5.90;97.90;;;;;;5007864;28;20121;-66
2022/04/04 12:49:13;;;;;;;15.98;8.30;;;6.00;94.70;;;;;;5004346;28;20104;-64
2022/04/04 12:51:49;;;;;;;14.98;6.95;;;6.00;94.90;;;;;;5010388;28;20029;-65
2022/04/04 12:54:24;;;;;;;17.52;8.23;;;5.90;93.20;;;;;;5005614;28;20041;-65